createdAt,value
2022-12-09T00:01:30.216Z,6.28
2022-12-09T00:03:59.316Z,7.78
2022-12-09T00:06:30.860Z,5.40
2022-12-09T00:09:00.460Z,5.32
2022-12-09T00:11:31.161Z,7.53
2022-12-09T00:14:01.008Z,7.22
2022-12-09T00:16:30.435Z,7.97
2022-12-09T00:18:59.736Z,7.45
2022-12-09T00:21:32.334Z,9.68
2022-12-09T00:24:03.132Z,8.35
2022-12-09T00:26:34.520Z,10.60
2022-12-09T00:29:04.167Z,6.95
2022-12-09T00:31:35.056Z,10.68
2022-12-09T00:34:06.309Z,8.60
2022-12-09T00:39:04.381Z,6.30
2022-12-09T00:41:34.755Z,10.48
2022-12-09T00:44:03.814Z,7.45
2022-12-09T00:46:33.242Z,8.18
2022-12-09T00:49:02.490Z,9.57
2022-12-09T00:51:31.598Z,19.50
2022-12-09T00:54:02.732Z,10.10
2022-12-09T00:56:32.035Z,12.98
2022-12-09T00:59:03.459Z,11.82
2022-12-09T01:01:32.537Z,6.93
2022-12-09T01:04:02.770Z,6.97
2022-12-09T01:06:31.943Z,10.18
2022-12-09T01:09:01.518Z,12.02
2022-12-09T01:11:31.092Z,10.80
2022-12-09T01:14:03.636Z,13.90
2022-12-09T01:16:37.831Z,13.35
2022-12-09T01:19:09.959Z,14.18
2022-12-09T01:21:39.334Z,11.48
2022-12-09T01:24:10.140Z,13.20
2022-12-09T01:26:40.116Z,11.93
2022-12-09T01:29:10.525Z,10.25
2022-12-09T01:31:39.957Z,11.68
2022-12-09T01:34:09.004Z,10.05
2022-12-09T01:36:37.970Z,8.70
2022-12-09T01:39:07.120Z,13.50
2022-12-09T01:41:36.673Z,10.20
2022-12-09T01:44:19.803Z,13.68
2022-12-09T01:46:49.392Z,12.00
2022-12-09T01:49:22.847Z,14.02
2022-12-09T01:52:02.791Z,22.42
2022-12-09T01:54:34.016Z,16.73
2022-12-09T01:57:05.494Z,14.63
2022-12-09T01:59:37.273Z,19.08
2022-12-09T02:02:10.201Z,15.05
2022-12-09T02:04:46.160Z,10.88
2022-12-09T02:07:16.533Z,15.88
2022-12-09T02:09:45.639Z,13.25
2022-12-09T02:12:16.902Z,13.25
2022-12-09T02:14:55.126Z,11.80
2022-12-09T02:17:31.443Z,15.18
2022-12-09T02:20:09.964Z,17.20
2022-12-09T02:22:44.794Z,14.45
2022-12-09T02:25:27.121Z,14.50
2022-12-09T02:30:46.005Z,17.23
2022-12-09T02:33:35.410Z,14.70
2022-12-09T02:36:10.958Z,12.32
2022-12-09T02:38:43.689Z,13.85
2022-12-09T02:41:18.519Z,14.48
2022-12-09T02:43:54.946Z,11.85
2022-12-09T02:46:30.535Z,13.13
2022-12-09T02:49:01.919Z,15.38
2022-12-09T02:51:36.215Z,9.95
2022-12-09T02:54:10.771Z,16.40
2022-12-09T02:56:45.545Z,10.95
2022-12-09T02:59:14.707Z,12.35
2022-12-09T03:01:50.248Z,10.77
2022-12-09T03:04:23.829Z,11.32
2022-12-09T03:07:09.307Z,14.43
2022-12-09T03:09:44.565Z,12.75
2022-12-09T03:12:19.430Z,16.38
2022-12-09T03:14:52.783Z,11.48
2022-12-09T03:17:26.824Z,13.10
2022-12-09T03:20:00.298Z,15.70
2022-12-09T03:22:32.584Z,13.10
2022-12-09T03:25:04.918Z,12.02
2022-12-09T03:27:38.565Z,11.52
2022-12-09T03:30:11.274Z,12.63
2022-12-09T03:32:42.822Z,9.65
2022-12-09T03:35:16.104Z,9.90
2022-12-09T03:37:47.757Z,10.13
2022-12-09T03:40:23.085Z,11.00
2022-12-09T03:43:00.919Z,13.93
2022-12-09T03:45:30.821Z,10.52
2022-12-09T03:48:00.638Z,11.00
2022-12-09T03:50:35.753Z,9.55
2022-12-09T03:53:10.097Z,14.65
2022-12-09T03:55:45.188Z,13.68
2022-12-09T03:58:16.355Z,17.05
2022-12-09T04:00:46.979Z,10.38
2022-12-09T04:03:18.656Z,10.07
2022-12-09T04:05:47.939Z,9.25
2022-12-09T04:08:18.386Z,11.88
2022-12-09T04:10:47.812Z,11.63
2022-12-09T04:13:17.354Z,10.98
2022-12-09T04:15:46.318Z,10.43
2022-12-09T04:18:15.476Z,11.25
2022-12-09T04:20:46.024Z,11.43
2022-12-09T04:23:15.023Z,10.45
2022-12-09T04:25:45.523Z,7.80
2022-12-09T04:28:14.622Z,7.60
2022-12-09T04:30:46.569Z,10.93
2022-12-09T04:33:15.829Z,10.27
2022-12-09T04:35:44.895Z,8.75
2022-12-09T04:38:14.176Z,12.15
2022-12-09T04:40:44.839Z,12.45
2022-12-09T04:43:14.000Z,11.05
2022-12-09T04:45:43.152Z,11.55
2022-12-09T04:48:12.333Z,10.45
2022-12-09T04:50:42.444Z,9.18
2022-12-09T04:53:11.524Z,13.30
2022-12-09T04:55:40.774Z,9.45
2022-12-09T04:58:11.126Z,6.18
2022-12-09T05:00:40.915Z,9.40
2022-12-09T05:03:09.983Z,11.32
2022-12-09T05:05:41.907Z,9.23
2022-12-09T05:08:11.376Z,5.43
2022-12-09T05:10:40.957Z,9.63
2022-12-09T05:13:11.493Z,7.18
2022-12-09T05:15:40.847Z,8.13
2022-12-09T05:18:10.376Z,7.10
2022-12-09T05:20:40.190Z,8.10
2022-12-09T05:23:09.890Z,8.73
2022-12-09T05:25:39.472Z,9.48
2022-12-09T05:28:10.057Z,7.93
2022-12-09T05:30:39.662Z,9.80
2022-12-09T05:33:09.268Z,6.80
2022-12-09T05:35:47.671Z,8.05
2022-12-09T05:38:21.347Z,10.45
2022-12-09T05:40:50.809Z,10.43
2022-12-09T05:43:21.709Z,11.40
2022-12-09T05:45:50.775Z,16.90
2022-12-09T05:48:20.285Z,12.80
2022-12-09T05:50:58.885Z,15.65
2022-12-09T05:53:28.484Z,13.50
2022-12-09T05:55:58.263Z,10.57
2022-12-09T05:58:29.024Z,15.77
2022-12-09T06:01:04.303Z,15.70
2022-12-09T06:03:33.981Z,20.15
2022-12-09T06:06:07.456Z,13.63
2022-12-09T06:08:37.051Z,11.52
2022-12-09T06:11:11.136Z,14.82
2022-12-09T06:13:41.659Z,12.73
2022-12-09T06:16:11.584Z,13.20
2022-12-09T06:18:41.737Z,13.63
2022-12-09T06:21:13.544Z,12.82
2022-12-09T06:23:44.337Z,15.95
2022-12-09T06:26:19.084Z,9.73
2022-12-09T06:28:49.686Z,13.27
2022-12-09T06:31:19.725Z,14.93
2022-12-09T06:33:57.931Z,14.02
2022-12-09T06:36:29.155Z,12.57
2022-12-09T06:39:04.502Z,14.00
2022-12-09T06:41:38.849Z,11.32
2022-12-09T06:44:09.724Z,16.08
2022-12-09T06:46:39.137Z,11.82
2022-12-09T06:49:08.776Z,11.52
2022-12-09T06:51:38.117Z,16.85
2022-12-09T06:54:09.783Z,11.02
2022-12-09T06:56:39.335Z,16.42
2022-12-09T06:59:11.253Z,17.13
2022-12-09T07:01:40.842Z,22.05
2022-12-09T07:04:13.520Z,21.65
2022-12-09T07:06:44.569Z,12.93
2022-12-09T07:09:15.936Z,10.82
2022-12-09T07:11:47.346Z,12.88
2022-12-09T07:16:48.976Z,14.57
2022-12-09T07:19:20.079Z,12.95
2022-12-09T07:21:50.861Z,14.60
2022-12-09T07:24:21.333Z,39.13
2022-12-09T07:26:51.433Z,35.00
2022-12-09T07:29:22.280Z,16.67
2022-12-09T07:31:51.489Z,44.17
2022-12-09T07:34:21.090Z,40.22
2022-12-09T07:36:50.209Z,23.88
2022-12-09T07:39:20.526Z,12.73
2022-12-09T07:41:53.867Z,13.00
2022-12-09T07:44:28.208Z,11.38
2022-12-09T07:46:58.452Z,12.38
2022-12-09T07:49:28.223Z,12.50
2022-12-09T07:51:57.470Z,9.13
2022-12-09T07:54:26.572Z,19.13
2022-12-09T07:56:55.887Z,13.43
2022-12-09T07:59:26.561Z,11.68
2022-12-09T08:01:59.814Z,40.33
2022-12-09T08:04:31.988Z,30.33
2022-12-09T08:07:02.176Z,26.48
2022-12-09T08:09:32.185Z,19.05
2022-12-09T08:12:01.833Z,28.67
2022-12-09T08:14:32.945Z,20.70
2022-12-09T08:17:02.618Z,20.55
2022-12-09T08:19:32.175Z,10.10
2022-12-09T08:22:01.685Z,11.60
2022-12-09T08:24:30.856Z,13.88
2022-12-09T08:27:00.424Z,11.88
2022-12-09T08:29:31.323Z,16.92
2022-12-09T08:32:00.745Z,14.70
2022-12-09T08:34:30.085Z,15.70
2022-12-09T08:37:02.219Z,11.07
2022-12-09T08:39:31.796Z,5.72
2022-12-09T08:42:00.966Z,11.55
2022-12-09T08:44:31.818Z,10.70
2022-12-09T08:47:01.130Z,9.13
2022-12-09T08:49:30.632Z,10.77
2022-12-09T08:51:59.848Z,6.70
2022-12-09T08:54:29.443Z,9.57
2022-12-09T08:56:59.165Z,11.23
2022-12-09T08:59:28.415Z,9.80
2022-12-09T09:01:59.369Z,9.98
2022-12-09T09:04:28.864Z,9.85
2022-12-09T09:06:58.100Z,12.57
2022-12-09T09:09:28.331Z,10.73
2022-12-09T09:11:57.392Z,8.95
2022-12-09T09:14:26.409Z,11.38
2022-12-09T09:16:55.496Z,10.20
2022-12-09T09:19:27.754Z,9.60
2022-12-09T09:21:57.798Z,6.28
2022-12-09T09:24:27.655Z,9.70
2022-12-09T09:26:57.503Z,7.53
2022-12-09T09:29:26.968Z,9.65
2022-12-09T09:31:57.396Z,8.02
2022-12-09T09:34:29.234Z,7.43
2022-12-09T09:36:59.287Z,5.85
2022-12-09T09:39:28.750Z,9.35
2022-12-09T09:42:06.021Z,8.48
2022-12-09T09:44:41.159Z,10.57
2022-12-09T09:47:16.797Z,9.02
2022-12-09T09:49:51.726Z,5.63
2022-12-09T09:52:23.312Z,8.85
2022-12-09T09:54:53.407Z,7.90
2022-12-09T09:57:28.422Z,5.47
2022-12-09T10:00:09.993Z,5.72
2022-12-09T10:03:01.179Z,7.75
2022-12-09T10:05:34.481Z,5.50
2022-12-09T10:08:27.948Z,7.90
2022-12-09T10:11:09.160Z,5.50
2022-12-09T10:13:48.415Z,5.25
2022-12-09T10:16:22.183Z,10.40
2022-12-09T10:19:08.184Z,7.93
2022-12-09T10:21:43.345Z,4.32
2022-12-09T10:24:22.225Z,3.38
2022-12-09T10:27:00.011Z,8.82
2022-12-09T10:29:47.716Z,6.30
2022-12-09T10:32:25.758Z,6.43
2022-12-09T10:34:55.171Z,4.70
2022-12-09T10:37:31.610Z,5.63
2022-12-09T10:40:15.106Z,8.65
2022-12-09T10:43:05.582Z,9.02
2022-12-09T10:46:14.979Z,7.45
2022-12-09T10:48:33.104Z,7.32
2022-12-09T10:51:06.256Z,6.28
2022-12-09T10:53:37.720Z,7.40
2022-12-09T10:56:08.514Z,5.78
2022-12-09T10:58:38.009Z,7.38
2022-12-09T11:01:10.356Z,5.45
2022-12-09T11:03:42.643Z,5.38
2022-12-09T11:06:23.850Z,3.58
2022-12-09T11:08:58.090Z,6.75
2022-12-09T11:11:42.109Z,5.68
2022-12-09T11:14:26.445Z,7.95
2022-12-09T11:16:58.317Z,6.18
2022-12-09T11:19:33.278Z,5.28
2022-12-09T11:22:22.271Z,5.60
2022-12-09T11:24:56.746Z,7.72
2022-12-09T11:27:29.065Z,7.75
2022-12-09T11:30:14.639Z,7.82
2022-12-09T11:32:59.776Z,4.70
2022-12-09T11:35:33.242Z,10.35
2022-12-09T11:38:06.023Z,9.82
2022-12-09T11:40:38.443Z,8.63
2022-12-09T11:43:07.510Z,6.13
2022-12-09T11:45:39.718Z,6.90
2022-12-09T11:48:35.110Z,10.88
2022-12-09T11:51:08.528Z,6.10
2022-12-09T11:53:41.875Z,4.97
2022-12-09T11:56:18.533Z,6.25
2022-12-09T11:58:55.722Z,6.40
2022-12-09T12:01:31.238Z,3.92
2022-12-09T12:04:05.950Z,7.88
2022-12-09T12:06:45.504Z,6.20
2022-12-09T12:09:20.566Z,5.28
2022-12-09T12:12:00.631Z,6.60
2022-12-09T12:14:31.561Z,5.28
2022-12-09T12:17:13.591Z,7.05
2022-12-09T12:19:51.043Z,5.78
2022-12-09T12:22:54.683Z,5.43
2022-12-09T12:25:36.018Z,5.63
2022-12-09T12:28:23.223Z,4.75
2022-12-09T12:31:01.346Z,4.78
2022-12-09T12:34:15.933Z,9.85
2022-12-09T12:36:46.482Z,9.02
2022-12-09T12:39:31.489Z,5.50
2022-12-09T12:42:08.949Z,5.57
2022-12-09T12:45:08.064Z,4.97
2022-12-09T12:47:44.300Z,7.80
2022-12-09T12:50:35.271Z,3.80
2022-12-09T12:53:15.086Z,3.53
2022-12-09T12:55:50.712Z,6.53
2022-12-09T12:58:33.590Z,2.92
2022-12-09T13:01:09.012Z,5.68
2022-12-09T13:03:47.748Z,4.15
2022-12-09T13:06:21.419Z,4.68
2022-12-09T13:08:59.842Z,5.10
2022-12-09T13:11:39.588Z,5.88
2022-12-09T13:14:14.171Z,4.95
2022-12-09T13:16:45.940Z,3.70
2022-12-09T13:19:21.703Z,2.78
2022-12-09T13:21:51.626Z,4.60
2022-12-09T13:24:27.934Z,5.82
2022-12-09T13:27:01.509Z,4.90
2022-12-09T13:29:38.715Z,5.03
2022-12-09T13:32:21.201Z,3.95
2022-12-09T13:34:54.525Z,3.42
2022-12-09T13:37:34.170Z,3.95
2022-12-09T13:40:06.478Z,5.07
2022-12-09T13:42:57.308Z,9.30
2022-12-09T13:45:33.116Z,4.10
2022-12-09T13:48:13.347Z,6.72
2022-12-09T13:50:57.176Z,2.60
2022-12-09T13:53:30.495Z,5.60
2022-12-09T13:56:02.253Z,6.28
2022-12-09T13:58:54.572Z,8.60
2022-12-09T14:01:36.165Z,5.07
2022-12-09T14:04:13.867Z,6.85
2022-12-09T14:06:58.240Z,7.07
2022-12-09T14:09:41.172Z,4.55
2022-12-09T14:12:13.755Z,5.00
2022-12-09T14:14:52.826Z,3.53
2022-12-09T14:18:00.492Z,7.70
2022-12-09T14:20:41.399Z,6.93
2022-12-09T14:23:20.170Z,7.00
2022-12-09T14:26:04.627Z,6.03
2022-12-09T14:28:55.816Z,5.82
2022-12-09T14:31:51.034Z,7.80
2022-12-09T14:34:36.695Z,6.05
2022-12-09T14:37:21.510Z,4.78
2022-12-09T14:39:56.846Z,5.55
2022-12-09T14:42:37.922Z,8.73
2022-12-09T14:45:20.734Z,5.85
2022-12-09T14:47:49.808Z,5.70
2022-12-09T14:50:22.180Z,7.40
2022-12-09T14:52:55.348Z,5.97
2022-12-09T14:55:26.610Z,2.80
2022-12-09T14:57:58.505Z,7.13
2022-12-09T15:00:30.476Z,6.35
2022-12-09T15:05:57.264Z,6.25
2022-12-09T15:08:33.058Z,5.07
2022-12-09T15:11:06.838Z,4.10
2022-12-09T15:13:37.847Z,6.10
2022-12-09T15:16:10.407Z,8.82
2022-12-09T15:18:41.717Z,6.28
2022-12-09T15:21:11.448Z,9.68
2022-12-09T15:23:45.667Z,8.80
2022-12-09T15:26:21.180Z,9.77
2022-12-09T15:28:52.850Z,5.75
2022-12-09T15:31:24.482Z,8.18
2022-12-09T15:33:55.802Z,9.02
2022-12-09T15:36:28.630Z,6.63
2022-12-09T15:39:03.789Z,4.50
2022-12-09T15:41:55.811Z,7.38
2022-12-09T15:44:27.523Z,8.65
2022-12-09T15:46:58.897Z,7.40
2022-12-09T15:49:30.448Z,8.43
2022-12-09T15:52:01.547Z,8.18
2022-12-09T15:54:40.016Z,9.52
2022-12-09T15:57:14.266Z,9.05
2022-12-09T15:59:45.190Z,8.13
2022-12-09T16:02:23.953Z,8.23
2022-12-09T16:04:55.295Z,10.35
2022-12-09T16:07:25.799Z,8.75
2022-12-09T16:10:05.230Z,53.35
2022-12-09T16:12:35.429Z,169.23
2022-12-09T16:15:07.293Z,295.45
2022-12-09T16:17:51.631Z,266.42
2022-12-09T16:20:32.383Z,281.00
2022-12-09T16:23:02.432Z,230.50
2022-12-09T16:25:38.760Z,53.45
2022-12-09T16:28:08.591Z,58.42
2022-12-09T16:33:19.025Z,118.85
2022-12-09T16:35:57.768Z,149.50
2022-12-09T16:38:26.974Z,114.15
2022-12-09T16:41:13.714Z,52.00
2022-12-09T16:43:57.547Z,33.13
2022-12-09T16:46:41.652Z,116.00
2022-12-09T16:49:10.756Z,15.02
2022-12-09T16:51:40.979Z,10.25
2022-12-09T16:54:20.724Z,12.37
2022-12-09T16:56:52.560Z,19.50
2022-12-09T17:01:50.874Z,16.23
2022-12-09T17:04:25.804Z,43.70
2022-12-09T17:06:55.596Z,69.43
2022-12-09T17:09:24.643Z,12.43
2022-12-09T17:11:55.374Z,149.40
2022-12-09T17:14:24.416Z,34.97
2022-12-09T17:16:53.421Z,29.35
2022-12-09T17:19:24.016Z,25.17
2022-12-09T17:21:53.155Z,14.90
2022-12-09T17:24:22.158Z,34.05
2022-12-09T17:26:51.150Z,21.92
2022-12-09T17:29:21.521Z,18.80
2022-12-09T17:31:51.950Z,19.00
2022-12-09T17:34:21.245Z,13.00
2022-12-09T17:36:50.204Z,12.27
2022-12-09T17:39:20.443Z,12.10
2022-12-09T17:41:50.365Z,12.40
2022-12-09T17:44:21.921Z,18.55
2022-12-09T17:46:52.526Z,14.40
2022-12-09T17:49:22.344Z,13.60
2022-12-09T17:51:51.287Z,11.43
2022-12-09T17:54:20.343Z,18.45
2022-12-09T17:56:49.456Z,16.35
2022-12-09T17:59:19.369Z,16.13
2022-12-09T18:01:48.512Z,20.35
2022-12-09T18:04:19.003Z,18.17
2022-12-09T18:06:48.067Z,13.75
2022-12-09T18:09:19.860Z,18.38
2022-12-09T18:11:50.809Z,19.08
2022-12-09T18:14:21.568Z,30.48
2022-12-09T18:16:52.158Z,18.83
2022-12-09T18:19:25.048Z,18.98
2022-12-09T18:21:57.979Z,109.43
2022-12-09T18:24:26.970Z,27.15
2022-12-09T18:26:56.016Z,13.43
2022-12-09T18:29:25.570Z,25.80
2022-12-09T18:31:56.842Z,13.35
2022-12-09T18:34:29.225Z,14.93
2022-12-09T18:36:58.232Z,18.95
2022-12-09T18:39:27.317Z,17.10
2022-12-09T18:41:56.339Z,18.63
2022-12-09T18:44:25.644Z,13.65
2022-12-09T18:46:54.656Z,15.02
2022-12-09T18:49:28.390Z,16.98
2022-12-09T18:51:57.356Z,12.60
2022-12-09T18:54:28.589Z,18.80
2022-12-09T18:56:57.861Z,19.35
2022-12-09T18:59:26.939Z,54.08
2022-12-09T19:01:56.044Z,158.05
2022-12-09T19:04:29.198Z,28.25
2022-12-09T19:07:00.169Z,36.03
2022-12-09T19:09:33.405Z,40.88
2022-12-09T19:12:23.043Z,54.38
2022-12-09T19:14:52.301Z,28.13
2022-12-09T19:17:21.950Z,26.70
2022-12-09T19:19:52.639Z,34.03
2022-12-09T19:22:21.754Z,37.60
2022-12-09T19:24:50.731Z,40.03
2022-12-09T19:27:19.872Z,35.47
2022-12-09T19:29:48.823Z,22.38
2022-12-09T19:32:50.901Z,26.73
2022-12-09T19:35:09.130Z,21.90
2022-12-09T19:40:08.441Z,27.40
2022-12-09T19:42:39.820Z,27.23
2022-12-09T19:45:13.893Z,30.30
2022-12-09T19:47:43.587Z,36.17
2022-12-09T19:50:13.992Z,33.97
2022-12-09T19:52:43.394Z,37.83
2022-12-09T19:55:13.661Z,38.50
2022-12-09T19:57:42.720Z,28.10
2022-12-09T20:00:13.000Z,22.48
2022-12-09T20:02:42.165Z,40.20
2022-12-09T20:05:11.141Z,35.85
2022-12-09T20:07:41.513Z,68.93
2022-12-09T20:10:11.625Z,45.65
2022-12-09T20:12:40.994Z,22.77
2022-12-09T20:15:10.714Z,20.80
2022-12-09T20:17:39.669Z,16.83
2022-12-09T20:20:10.722Z,16.42
2022-12-09T20:25:10.747Z,15.05
2022-12-09T20:27:39.763Z,18.88
2022-12-09T20:30:10.260Z,14.70
2022-12-09T20:32:39.458Z,16.00
2022-12-09T20:35:09.357Z,20.77
2022-12-09T20:37:38.629Z,23.35
2022-12-09T20:40:10.517Z,23.10
2022-12-09T20:42:39.833Z,21.05
2022-12-09T20:45:10.162Z,16.23
2022-12-09T20:47:39.572Z,17.00
2022-12-09T20:50:09.962Z,16.52
2022-12-09T20:52:39.602Z,23.45
2022-12-09T20:55:10.291Z,19.17
2022-12-09T20:57:39.336Z,14.15
2022-12-09T21:00:10.123Z,18.55
2022-12-09T21:02:39.994Z,15.80
2022-12-09T21:05:09.965Z,18.00
2022-12-09T21:07:39.038Z,18.95
2022-12-09T21:10:11.226Z,24.67
2022-12-09T21:12:40.518Z,12.43
2022-12-09T21:15:10.598Z,11.68
2022-12-09T21:17:39.604Z,10.30
2022-12-09T21:20:09.968Z,14.45
2022-12-09T21:22:40.002Z,14.95
2022-12-09T21:25:11.020Z,15.25
2022-12-09T21:27:40.148Z,15.27
2022-12-09T21:30:10.705Z,14.00
2022-12-09T21:32:40.116Z,11.95
2022-12-09T21:35:10.051Z,14.95
2022-12-09T21:37:39.022Z,13.07
2022-12-09T21:40:08.902Z,11.20
2022-12-09T21:42:39.804Z,9.43
2022-12-09T21:45:09.748Z,9.00
2022-12-09T21:47:39.584Z,10.25
2022-12-09T21:50:09.802Z,9.35
2022-12-09T21:52:39.118Z,10.68
2022-12-09T21:55:08.580Z,14.90
2022-12-09T21:57:39.052Z,9.18
2022-12-09T22:00:10.164Z,10.85
2022-12-09T22:02:39.645Z,11.43
2022-12-09T22:05:09.564Z,23.27
2022-12-09T22:07:38.542Z,29.08
2022-12-09T22:10:09.026Z,24.80
2022-12-09T22:12:39.579Z,15.32
2022-12-09T22:15:10.999Z,14.60
2022-12-09T22:17:40.065Z,7.32
2022-12-09T22:20:54.084Z,10.13
2022-12-09T22:23:00.686Z,9.05
2022-12-09T22:25:29.686Z,7.55
2022-12-09T22:28:00.125Z,9.45
2022-12-09T22:30:29.140Z,8.52
2022-12-09T22:32:58.618Z,7.28
2022-12-09T22:35:27.590Z,9.30
2022-12-09T22:37:59.204Z,8.52
2022-12-09T22:40:28.447Z,7.45
2022-12-09T22:42:57.646Z,5.40
2022-12-09T22:45:28.058Z,7.30
2022-12-09T22:47:57.088Z,7.88
2022-12-09T22:50:26.247Z,7.35
2022-12-09T22:52:56.089Z,6.22
2022-12-09T22:55:25.121Z,7.93
2022-12-09T22:57:54.086Z,5.65
2022-12-09T23:00:23.198Z,8.20
2022-12-09T23:02:53.657Z,7.00
2022-12-09T23:05:22.724Z,8.77
2022-12-09T23:07:51.819Z,8.93
2022-12-09T23:10:20.833Z,9.05
2022-12-09T23:12:50.108Z,7.03
2022-12-09T23:15:19.138Z,5.05
2022-12-09T23:17:48.088Z,6.55
2022-12-09T23:20:18.834Z,8.02
2022-12-09T23:22:47.822Z,7.75
2022-12-09T23:25:17.024Z,4.95
2022-12-09T23:27:46.425Z,3.63
2022-12-09T23:30:15.618Z,7.10
2022-12-09T23:32:44.597Z,6.45
2022-12-09T23:35:13.749Z,4.88
2022-12-09T23:37:44.162Z,6.38
2022-12-09T23:40:14.451Z,3.55
2022-12-09T23:42:43.503Z,5.57
2022-12-09T23:45:12.859Z,5.28
2022-12-09T23:47:41.797Z,6.57
2022-12-09T23:50:11.380Z,8.05
2022-12-09T23:52:40.312Z,4.80
2022-12-09T23:55:11.185Z,3.70
2022-12-09T23:57:40.168Z,6.57
